Time;durP1;ratioP1;P1;durP2;ratioP2;P2;SDS_P1;SDS_P2;PMS_P1;PMS_P2;Temp;Humidity;BMP_temperature;BMP_pressure;BME280_temperature;BME280_humidity;BME280_pressure;Samples;Min_cycle;Max_cycle;Signal;HPM_P1;HPM_P2
2023/01/09 00:01:24;;;;;;;5.03;3.47;;;7.70;99.80;;;;;;4990133;28;20045;-65
2023/01/09 00:03:50;;;;;;;5.45;4.13;;;7.70;99.90;;;;;;4990826;28;20030;-65
2023/01/09 00:06:16;;;;;;;7.32;4.00;;;7.70;99.80;;;;;;4991797;28;20128;-64
2023/01/09 00:08:42;;;;;;;8.20;4.30;;;7.70;99.70;;;;;;4989452;28;20487;-64
2023/01/09 00:11:08;;;;;;;6.93;4.18;;;7.70;99.70;;;;;;4992157;28;20034;-64
2023/01/09 00:13:34;;;;;;;7.55;3.65;;;7.80;99.60;;;;;;4997215;28;20042;-64
2023/01/09 00:15:59;;;;;;;6.47;3.70;;;7.80;99.40;;;;;;4993501;28;20483;-64
2023/01/09 00:18:25;;;;;;;6.38;4.60;;;7.80;99.50;;;;;;4996324;28;20081;-64
2023/01/09 00:20:51;;;;;;;7.32;3.83;;;7.80;99.50;;;;;;4993208;28;20130;-64
2023/01/09 00:23:17;;;;;;;6.13;3.88;;;7.70;99.40;;;;;;4991890;28;20394;-64
2023/01/09 00:25:43;;;;;;;5.28;3.63;;;7.80;99.40;;;;;;4988592;28;20046;-64
2023/01/09 00:28:09;;;;;;;5.10;3.50;;;7.80;99.20;;;;;;4990471;28;20096;-65
2023/01/09 00:30:35;;;;;;;5.75;4.15;;;7.80;99.30;;;;;;4988821;28;20029;-65
2023/01/09 00:33:01;;;;;;;6.32;4.05;;;7.70;99.30;;;;;;4997470;28;20526;-65
2023/01/09 00:35:28;;;;;;;6.53;3.85;;;7.70;99.40;;;;;;4997323;28;20129;-64
2023/01/09 00:37:54;;;;;;;6.93;4.03;;;7.70;99.40;;;;;;4998436;28;20030;-65
2023/01/09 00:40:20;;;;;;;7.97;3.88;;;7.70;99.40;;;;;;4992863;28;20746;-65
2023/01/09 00:42:51;;;;;;;7.85;4.20;;;7.70;99.30;;;;;;4992077;28;20490;-65
2023/01/09 00:45:27;;;;;;;6.10;4.13;;;7.70;99.20;;;;;;4988917;28;20100;-65
2023/01/09 00:47:56;;;;;;;7.20;4.00;;;7.70;99.20;;;;;;4993020;28;20042;-65
2023/01/09 00:50:27;;;;;;;6.22;3.85;;;7.70;98.80;;;;;;4987594;28;20908;-65
2023/01/09 00:52:55;;;;;;;5.38;3.88;;;7.80;98.90;;;;;;4993866;28;20062;-65
2023/01/09 00:55:21;;;;;;;6.28;4.07;;;7.70;98.80;;;;;;4998862;28;20034;-65
2023/01/09 00:57:47;;;;;;;5.22;3.92;;;7.70;98.80;;;;;;4992583;28;20033;-65
2023/01/09 01:00:13;;;;;;;6.22;4.15;;;7.70;98.80;;;;;;4994096;28;20034;-64
2023/01/09 01:02:39;;;;;;;8.25;4.40;;;7.70;98.80;;;;;;4991674;28;20109;-64
2023/01/09 01:07:51;;;;;;;6.20;4.38;;;7.70;98.70;;;;;;4987183;28;20080;-65
2023/01/09 01:10:22;;;;;;;7.63;4.25;;;7.60;98.70;;;;;;4994362;28;20682;-64
2023/01/09 01:12:50;;;;;;;4.57;3.58;;;7.60;98.70;;;;;;4987957;28;20121;-65
2023/01/09 01:15:17;;;;;;;7.50;3.97;;;7.50;98.80;;;;;;4987578;28;20038;-64
2023/01/09 01:17:44;;;;;;;8.02;4.53;;;7.50;98.90;;;;;;4997896;28;20040;-64
2023/01/09 01:20:13;;;;;;;6.93;4.15;;;7.50;98.90;;;;;;4995476;28;20499;-65
2023/01/09 01:22:41;;;;;;;8.23;4.60;;;7.50;98.70;;;;;;4993447;28;20212;-65
2023/01/09 01:25:09;;;;;;;6.22;4.05;;;7.50;98.60;;;;;;4997267;28;20566;-65
2023/01/09 01:27:35;;;;;;;8.75;4.88;;;7.40;98.70;;;;;;4994740;28;20053;-64
2023/01/09 01:30:01;;;;;;;6.78;4.32;;;7.50;98.50;;;;;;4995539;28;20108;-64
2023/01/09 01:32:27;;;;;;;8.88;4.70;;;7.50;98.50;;;;;;4995232;28;20481;-64
2023/01/09 01:34:53;;;;;;;8.82;4.93;;;7.40;98.60;;;;;;4996067;28;20120;-64
2023/01/09 01:37:20;;;;;;;7.03;4.72;;;7.40;98.70;;;;;;4996705;28;20034;-65
2023/01/09 01:39:46;;;;;;;9.60;5.32;;;7.40;98.60;;;;;;4995858;28;20036;-64
2023/01/09 01:42:13;;;;;;;8.05;5.20;;;7.40;98.60;;;;;;4995308;28;20043;-64
2023/01/09 01:44:59;;;;;;;8.70;5.60;;;7.40;98.60;;;;;;4993468;28;20584;-64
2023/01/09 01:47:38;;;;;;;9.48;5.60;;;7.40;98.70;;;;;;4995932;28;20038;-64
2023/01/09 01:50:20;;;;;;;8.95;5.22;;;7.40;98.40;;;;;;4990651;28;20038;-64
2023/01/09 01:52:55;;;;;;;11.02;5.68;;;7.30;98.50;;;;;;4992377;28;20040;-64
2023/01/09 01:55:21;;;;;;;9.52;5.90;;;7.30;98.60;;;;;;4991933;28;20122;-64
2023/01/09 01:57:51;;;;;;;8.82;5.13;;;7.20;98.60;;;;;;4995991;28;20453;-64
2023/01/09 02:00:20;;;;;;;9.48;5.70;;;7.20;98.80;;;;;;4998765;28;20188;-64
2023/01/09 02:02:46;;;;;;;9.77;6.00;;;7.20;98.90;;;;;;4999837;28;20025;-64
2023/01/09 02:05:12;;;;;;;8.75;5.68;;;7.20;98.80;;;;;;4995671;28;20044;-64
2023/01/09 02:07:38;;;;;;;9.07;5.47;;;7.30;98.60;;;;;;4995621;28;20034;-64
2023/01/09 02:10:04;;;;;;;6.57;4.85;;;7.30;98.60;;;;;;4990501;28;20149;-64
2023/01/09 02:12:30;;;;;;;9.60;5.20;;;7.30;98.50;;;;;;4995624;28;20292;-64
2023/01/09 02:15:09;;;;;;;8.48;5.57;;;7.30;98.40;;;;;;4988320;28;20076;-64
2023/01/09 02:18:15;;;;;;;8.85;5.15;;;7.30;98.40;;;;;;4997688;28;20030;-64
2023/01/09 02:20:50;;;;;;;10.70;6.03;;;7.30;98.30;;;;;;5000999;28;20041;-64
2023/01/09 02:23:54;;;;;;;9.88;6.30;;;7.30;98.10;;;;;;4997971;28;20096;-64
2023/01/09 02:26:51;;;;;;;9.85;6.25;;;7.30;98.40;;;;;;5002627;28;20043;-64
2023/01/09 02:29:41;;;;;;;9.57;5.82;;;7.20;98.80;;;;;;4994193;28;20450;-64
2023/01/09 02:32:10;;;;;;;11.73;6.28;;;7.20;98.60;;;;;;4991295;28;20042;-64
2023/01/09 02:34:55;;;;;;;10.88;6.30;;;7.10;98.40;;;;;;4991302;28;20042;-64
2023/01/09 02:37:21;;;;;;;10.27;6.53;;;7.10;99.00;;;;;;4992674;28;20038;-64
2023/01/09 02:40:26;;;;;;;13.32;7.03;;;6.90;99.10;;;;;;4990037;28;20041;-65
2023/01/09 02:42:54;;;;;;;11.90;7.00;;;6.90;99.30;;;;;;4999267;28;20690;-64
2023/01/09 02:45:20;;;;;;;11.32;7.00;;;6.90;99.30;;;;;;5002108;28;20438;-64
2023/01/09 02:47:46;;;;;;;11.30;7.00;;;6.80;99.50;;;;;;4995231;28;20034;-64
2023/01/09 02:50:20;;;;;;;13.30;7.57;;;6.90;99.50;;;;;;4996171;28;20035;-65
2023/01/09 02:52:57;;;;;;;14.52;7.88;;;6.90;99.40;;;;;;4990286;28;20089;-64
2023/01/09 02:55:26;;;;;;;15.10;7.60;;;7.00;99.30;;;;;;4993682;28;20058;-64
2023/01/09 02:58:28;;;;;;;11.32;6.88;;;7.00;99.30;;;;;;4987422;28;20038;-64
2023/01/09 03:01:24;;;;;;;10.63;6.40;;;7.00;99.10;;;;;;4978952;28;20097;-64
2023/01/09 03:04:13;;;;;;;12.25;6.97;;;7.10;98.90;;;;;;4991392;28;20053;-64
2023/01/09 03:06:57;;;;;;;14.57;7.32;;;7.10;98.90;;;;;;4996228;28;20040;-64
2023/01/09 03:09:27;;;;;;;11.07;7.35;;;7.10;99.00;;;;;;5000938;28;20076;-64
2023/01/09 03:12:00;;;;;;;11.07;6.50;;;7.10;99.00;;;;;;4993134;28;20831;-65
2023/01/09 03:14:29;;;;;;;13.18;7.80;;;7.10;98.90;;;;;;4994600;28;20465;-64
2023/01/09 03:16:59;;;;;;;12.45;7.30;;;7.00;98.90;;;;;;4989662;28;20840;-64
2023/01/09 03:19:29;;;;;;;14.65;7.60;;;7.10;98.90;;;;;;4993529;28;20152;-65
2023/01/09 03:21:56;;;;;;;12.20;7.53;;;7.10;98.90;;;;;;4985742;28;20479;-64
2023/01/09 03:24:22;;;;;;;12.05;7.07;;;7.10;98.70;;;;;;4995133;28;20873;-64
2023/01/09 03:26:48;;;;;;;13.75;8.07;;;7.10;98.80;;;;;;4998461;28;20026;-64
2023/01/09 03:29:14;;;;;;;14.10;7.93;;;7.20;98.70;;;;;;4993162;28;20041;-64
2023/01/09 03:31:40;;;;;;;13.45;7.13;;;7.30;98.80;;;;;;4996440;28;20029;-64
2023/01/09 03:34:06;;;;;;;11.23;6.85;;;7.30;98.40;;;;;;5000950;28;20042;-64
2023/01/09 03:36:32;;;;;;;14.43;7.55;;;7.40;98.30;;;;;;4993801;28;20042;-64
2023/01/09 03:38:57;;;;;;;10.48;7.25;;;7.40;98.10;;;;;;4988435;28;20070;-64
2023/01/09 03:41:23;;;;;;;10.82;7.25;;;7.30;98.00;;;;;;4992253;28;20037;-64
2023/01/09 03:43:49;;;;;;;12.90;6.80;;;7.30;98.20;;;;;;4990678;28;20037;-65
2023/01/09 03:46:15;;;;;;;11.90;6.38;;;7.40;98.10;;;;;;4989020;28;20089;-64
2023/01/09 03:48:41;;;;;;;10.88;7.00;;;7.50;98.00;;;;;;4995907;28;20030;-64
2023/01/09 03:51:07;;;;;;;11.40;7.35;;;7.50;98.00;;;;;;4995324;28;20038;-64
2023/01/09 03:53:33;;;;;;;11.23;6.75;;;7.50;97.80;;;;;;4991026;28;20115;-65
2023/01/09 03:55:59;;;;;;;12.43;7.35;;;7.40;98.00;;;;;;4993493;28;20483;-64
2023/01/09 03:58:25;;;;;;;13.85;7.63;;;7.40;98.00;;;;;;4990048;28;20040;-63
2023/01/09 04:00:58;;;;;;;13.05;7.28;;;7.30;98.20;;;;;;4992565;28;20026;-64
2023/01/09 04:03:24;;;;;;;12.07;7.68;;;7.30;98.20;;;;;;4986892;28;20026;-64
2023/01/09 04:05:50;;;;;;;13.75;7.63;;;7.30;98.20;;;;;;4993461;28;20367;-64
2023/01/09 04:08:16;;;;;;;11.40;6.82;;;7.40;98.10;;;;;;4994038;28;20034;-64
2023/01/09 04:10:46;;;;;;;12.32;7.25;;;7.40;98.10;;;;;;4996276;28;20136;-64
2023/01/09 04:13:13;;;;;;;11.40;7.47;;;7.50;98.00;;;;;;4995198;28;20045;-64
2023/01/09 04:15:39;;;;;;;13.43;7.63;;;7.60;97.70;;;;;;4994773;28;20221;-65
2023/01/09 04:18:04;;;;;;;10.65;7.28;;;7.50;97.70;;;;;;4990903;28;20052;-65
2023/01/09 04:20:31;;;;;;;11.50;7.25;;;7.50;97.70;;;;;;4996696;28;20113;-65
2023/01/09 04:22:58;;;;;;;13.13;7.38;;;7.50;97.80;;;;;;4991430;28;20034;-65
2023/01/09 04:25:25;;;;;;;13.32;7.32;;;7.60;97.60;;;;;;4995815;28;20073;-64
2023/01/09 04:27:50;;;;;;;14.68;7.93;;;7.60;97.60;;;;;;4986956;28;20038;-64
2023/01/09 04:30:16;;;;;;;10.88;7.28;;;7.50;97.50;;;;;;4997688;28;20044;-63
2023/01/09 04:32:42;;;;;;;11.38;6.97;;;7.50;97.70;;;;;;4997403;28;20033;-64
2023/01/09 04:35:09;;;;;;;12.50;7.10;;;7.50;97.70;;;;;;4989323;28;20092;-64
2023/01/09 04:37:37;;;;;;;12.10;7.22;;;7.50;97.70;;;;;;4994457;28;20431;-64
2023/01/09 04:40:10;;;;;;;13.73;7.45;;;7.50;97.90;;;;;;4987364;28;20490;-64
2023/01/09 04:42:37;;;;;;;11.57;7.30;;;7.60;98.00;;;;;;4991789;28;20343;-65
2023/01/09 04:45:05;;;;;;;12.80;8.05;;;7.50;98.10;;;;;;4993666;28;20080;-64
2023/01/09 04:47:31;;;;;;;12.70;7.57;;;7.50;98.40;;;;;;4996834;28;20033;-64
2023/01/09 04:49:57;;;;;;;13.23;7.13;;;7.50;98.50;;;;;;4989779;28;20038;-65
2023/01/09 04:52:23;;;;;;;11.43;7.60;;;7.40;98.50;;;;;;4996198;28;20038;-65
2023/01/09 04:54:49;;;;;;;13.60;7.70;;;7.30;98.90;;;;;;4994559;28;20080;-64
2023/01/09 04:57:16;;;;;;;10.80;6.97;;;7.30;99.00;;;;;;4994577;28;20841;-65
2023/01/09 04:59:42;;;;;;;13.23;8.02;;;7.40;99.00;;;;;;4988878;28;20204;-65
2023/01/09 05:02:08;;;;;;;13.43;7.93;;;7.40;99.00;;;;;;4992708;28;20133;-64
2023/01/09 05:04:35;;;;;;;14.23;8.02;;;7.40;99.00;;;;;;4989693;28;20584;-64
2023/01/09 05:07:00;;;;;;;16.88;8.43;;;7.30;99.30;;;;;;4995000;28;20105;-65
2023/01/09 05:09:26;;;;;;;15.38;9.27;;;7.30;99.40;;;;;;4987702;28;20149;-65
2023/01/09 05:11:52;;;;;;;14.95;8.32;;;7.20;99.80;;;;;;4993338;28;20366;-64
2023/01/09 05:14:18;;;;;;;14.52;7.93;;;7.20;99.90;;;;;;4997173;28;20041;-65
2023/01/09 05:16:44;;;;;;;15.90;8.73;;;7.20;99.90;;;;;;4994397;28;20037;-64
2023/01/09 05:19:10;;;;;;;14.43;8.15;;;7.20;99.90;;;;;;4995329;28;20099;-64
2023/01/09 05:21:36;;;;;;;14.60;8.45;;;7.10;99.90;;;;;;4992815;28;20760;-64
2023/01/09 05:24:02;;;;;;;15.82;8.68;;;7.10;99.90;;;;;;4989863;28;20751;-65
2023/01/09 05:26:28;;;;;;;14.75;8.98;;;7.10;99.90;;;;;;4994967;28;20128;-64
2023/01/09 05:28:57;;;;;;;15.95;9.18;;;7.20;99.90;;;;;;4985320;28;20474;-64
2023/01/09 05:31:25;;;;;;;18.42;9.73;;;7.10;99.90;;;;;;4993819;28;20065;-64
2023/01/09 05:33:52;;;;;;;14.27;9.05;;;7.00;99.90;;;;;;4991018;28;20581;-65
2023/01/09 05:36:18;;;;;;;13.82;8.13;;;7.00;99.90;;;;;;4994039;28;20117;-64
2023/01/09 05:38:44;;;;;;;16.20;9.32;;;7.10;99.90;;;;;;4995116;28;20562;-64
2023/01/09 05:41:10;;;;;;;13.98;8.30;;;7.10;99.90;;;;;;4990783;28;20129;-64
2023/01/09 05:43:36;;;;;;;18.85;9.20;;;7.10;99.90;;;;;;4992604;28;20429;-63
2023/01/09 05:46:02;;;;;;;14.25;8.95;;;7.10;99.90;;;;;;4987902;28;20469;-64
2023/01/09 05:48:28;;;;;;;15.45;9.40;;;7.10;99.90;;;;;;4988940;28;20044;-64
2023/01/09 05:50:54;;;;;;;15.77;9.20;;;7.20;99.90;;;;;;4979658;28;20035;-65
2023/01/09 05:53:20;;;;;;;16.30;8.43;;;7.30;99.90;;;;;;4994183;28;20818;-63
2023/01/09 05:55:46;;;;;;;14.70;9.32;;;7.30;99.90;;;;;;4995287;28;20541;-63
2023/01/09 05:58:12;;;;;;;15.85;8.52;;;7.30;99.90;;;;;;5000410;28;20021;-66
2023/01/09 06:00:37;;;;;;;14.82;9.20;;;7.40;99.90;;;;;;4999457;28;20026;-65
2023/01/09 06:03:04;;;;;;;15.07;9.13;;;7.50;99.90;;;;;;4995716;28;20034;-63
2023/01/09 06:05:29;;;;;;;16.02;9.18;;;7.50;99.90;;;;;;4986556;28;20030;-63
2023/01/09 06:07:55;;;;;;;18.13;9.00;;;7.50;99.90;;;;;;4989508;28;20034;-63
2023/01/09 06:10:21;;;;;;;13.73;8.48;;;7.50;99.90;;;;;;4989891;28;20049;-64
2023/01/09 06:12:49;;;;;;;16.17;9.52;;;7.60;99.90;;;;;;4991086;28;20030;-63
2023/01/09 06:15:15;;;;;;;17.77;9.10;;;7.60;99.90;;;;;;4992563;28;20125;-65
2023/01/09 06:17:41;;;;;;;16.90;9.93;;;7.70;99.90;;;;;;4995621;28;20030;-64
2023/01/09 06:20:09;;;;;;;15.40;8.00;;;7.70;99.90;;;;;;5003216;28;20763;-64
2023/01/09 06:22:35;;;;;;;17.88;8.70;;;7.70;99.90;;;;;;4999916;28;20045;-64
2023/01/09 06:25:01;;;;;;;17.10;9.63;;;7.70;99.90;;;;;;4993806;28;20046;-64
2023/01/09 06:27:26;;;;;;;17.50;9.82;;;7.70;99.90;;;;;;4998664;28;20038;-65
2023/01/09 06:29:52;;;;;;;17.08;9.93;;;7.70;99.90;;;;;;5002901;28;20034;-64
2023/01/09 06:32:18;;;;;;;16.52;9.50;;;7.70;99.90;;;;;;4996440;28;20534;-64
2023/01/09 06:34:44;;;;;;;16.50;9.70;;;7.60;99.90;;;;;;5002275;28;20073;-62
2023/01/09 06:37:10;;;;;;;16.30;9.80;;;7.50;99.90;;;;;;5000051;28;20116;-63
2023/01/09 06:39:35;;;;;;;19.52;10.07;;;7.60;99.90;;;;;;5006770;28;20026;-64
2023/01/09 06:42:01;;;;;;;18.15;9.55;;;7.60;99.90;;;;;;5003932;28;20034;-63
2023/01/09 06:44:27;;;;;;;19.60;9.93;;;7.60;99.90;;;;;;5008451;28;20033;-66
2023/01/09 06:46:53;;;;;;;18.75;10.27;;;7.60;99.90;;;;;;5000437;28;20030;-67
2023/01/09 06:49:22;;;;;;;17.45;9.43;;;7.60;99.90;;;;;;4999385;28;20526;-63
2023/01/09 06:51:51;;;;;;;15.45;8.95;;;7.60;99.90;;;;;;5002893;28;20029;-64
2023/01/09 06:54:17;;;;;;;18.92;9.77;;;7.60;99.90;;;;;;4988435;28;20049;-64
2023/01/09 06:56:43;;;;;;;16.20;9.13;;;7.70;99.90;;;;;;4995121;28;20092;-64
2023/01/09 06:59:09;;;;;;;16.73;10.35;;;7.70;99.90;;;;;;4993416;28;20503;-65
2023/01/09 07:01:35;;;;;;;17.35;10.05;;;7.70;99.90;;;;;;5000500;28;20426;-64
2023/01/09 07:04:01;;;;;;;15.65;9.77;;;7.70;99.90;;;;;;5000746;28;20034;-67
2023/01/09 07:06:27;;;;;;;19.10;10.52;;;7.70;99.90;;;;;;4998584;28;20038;-63
2023/01/09 07:08:52;;;;;;;18.13;9.32;;;7.70;99.90;;;;;;4993542;28;20112;-63
2023/01/09 07:11:18;;;;;;;21.67;10.07;;;7.70;99.90;;;;;;4990564;28;20107;-69
2023/01/09 07:13:44;;;;;;;18.02;10.18;;;7.60;99.90;;;;;;5000026;28;20540;-69
2023/01/09 07:16:10;;;;;;;18.90;10.68;;;7.60;99.90;;;;;;4991874;28;20502;-70
2023/01/09 07:18:36;;;;;;;17.75;10.25;;;7.60;99.90;;;;;;4995104;28;20832;-65
2023/01/09 07:21:01;;;;;;;20.52;10.52;;;7.50;99.90;;;;;;4995417;28;20030;-64
2023/01/09 07:23:27;;;;;;;16.35;9.55;;;7.40;99.90;;;;;;5006824;28;21378;-64
2023/01/09 07:25:53;;;;;;;19.65;10.23;;;7.50;99.90;;;;;;4994744;28;20069;-65
2023/01/09 07:28:19;;;;;;;17.73;9.75;;;7.50;99.90;;;;;;5002407;28;20034;-65
2023/01/09 07:30:44;;;;;;;17.33;8.77;;;7.60;99.90;;;;;;4996647;28;20045;-64
2023/01/09 07:33:10;;;;;;;17.92;9.48;;;7.80;99.90;;;;;;4996490;28;20049;-64
2023/01/09 07:35:37;;;;;;;18.77;10.45;;;7.70;99.90;;;;;;5001470;28;20033;-64
2023/01/09 07:38:02;;;;;;;19.60;10.25;;;7.70;99.90;;;;;;5000437;28;20038;-66
2023/01/09 07:40:28;;;;;;;17.60;9.40;;;7.70;99.90;;;;;;4992956;28;20030;-61
2023/01/09 07:42:54;;;;;;;19.90;10.65;;;7.70;99.90;;;;;;4995754;28;20029;-65
2023/01/09 07:45:20;;;;;;;20.63;10.27;;;7.70;99.90;;;;;;4997991;28;20037;-65
2023/01/09 07:47:46;;;;;;;19.38;9.98;;;7.80;99.90;;;;;;4996752;28;20025;-65
2023/01/09 07:50:11;;;;;;;16.80;9.95;;;7.90;99.90;;;;;;4996161;28;20886;-70
2023/01/09 07:52:37;;;;;;;18.73;9.07;;;7.90;99.90;;;;;;4999606;28;20088;-69
2023/01/09 07:55:03;;;;;;;16.30;9.43;;;7.90;99.90;;;;;;4992470;28;20183;-68
2023/01/09 07:57:29;;;;;;;19.50;10.02;;;7.80;99.90;;;;;;4997521;28;20030;-65
2023/01/09 07:59:55;;;;;;;15.55;9.60;;;7.80;99.90;;;;;;4985228;28;20036;-65
2023/01/09 08:02:21;;;;;;;16.55;9.57;;;7.70;99.90;;;;;;4994478;28;20026;-65
2023/01/09 08:04:47;;;;;;;20.25;9.82;;;7.70;99.90;;;;;;4995251;28;20026;-65
2023/01/09 08:07:13;;;;;;;18.77;9.20;;;7.80;99.90;;;;;;5000315;28;20427;-65
2023/01/09 08:09:39;;;;;;;19.83;10.30;;;7.90;99.90;;;;;;4997518;28;20110;-65
2023/01/09 08:12:05;;;;;;;16.25;9.40;;;7.90;99.90;;;;;;4992281;28;20491;-65
2023/01/09 08:14:31;;;;;;;16.55;9.80;;;7.90;99.90;;;;;;4990270;28;20517;-65
2023/01/09 08:16:57;;;;;;;15.88;9.20;;;7.80;99.90;;;;;;4998306;28;20034;-65
2023/01/09 08:19:23;;;;;;;17.05;9.15;;;7.90;99.90;;;;;;4993681;28;20029;-65
2023/01/09 08:21:49;;;;;;;18.10;10.40;;;7.90;99.90;;;;;;4991454;28;20081;-65
2023/01/09 08:24:15;;;;;;;15.18;9.00;;;7.90;99.90;;;;;;4991687;28;20548;-65
2023/01/09 08:26:40;;;;;;;16.83;9.13;;;8.10;99.90;;;;;;5011092;28;20107;-65
2023/01/09 08:29:06;;;;;;;16.88;9.55;;;8.10;99.90;;;;;;4997961;28;20037;-65
2023/01/09 08:31:32;;;;;;;14.88;9.70;;;8.20;99.90;;;;;;4991027;28;20026;-65
2023/01/09 08:33:58;;;;;;;15.93;9.00;;;8.20;99.90;;;;;;4991885;28;20046;-66
2023/01/09 08:36:23;;;;;;;16.10;9.20;;;8.20;99.90;;;;;;4994035;28;20042;-65
2023/01/09 08:38:49;;;;;;;15.00;8.93;;;8.40;99.90;;;;;;4995274;28;20042;-64
2023/01/09 08:49:28;;;;;;;17.90;10.02;;;8.20;99.90;;;;;;5003219;28;20686;-65
2023/01/09 08:51:54;;;;;;;17.20;8.95;;;8.30;99.90;;;;;;5002092;28;20038;-65
2023/01/09 08:54:20;;;;;;;17.65;9.20;;;8.30;99.90;;;;;;4998287;28;20042;-66
2023/01/09 08:56:46;;;;;;;15.80;8.50;;;8.30;99.90;;;;;;4989626;28;20141;-65
2023/01/09 08:59:12;;;;;;;15.35;9.00;;;8.40;99.90;;;;;;5002000;28;20668;-67
2023/01/09 09:01:37;;;;;;;19.58;9.23;;;8.40;99.90;;;;;;4997855;28;20030;-65
2023/01/09 09:04:04;;;;;;;16.65;8.27;;;8.30;99.90;;;;;;4990975;28;20040;-64
2023/01/09 09:06:31;;;;;;;12.80;7.97;;;8.40;99.90;;;;;;4993745;28;20026;-66
2023/01/09 09:09:01;;;;;;;15.63;8.90;;;8.40;99.90;;;;;;4999012;28;20030;-69
2023/01/09 09:11:34;;;;;;;15.68;7.93;;;8.50;99.90;;;;;;4996063;28;20156;-65
2023/01/09 09:15:11;;;;;;;16.40;8.43;;;8.50;99.90;;;;;;4992197;28;20137;-65
2023/01/09 09:16:46;;;;;;;14.70;9.15;;;8.50;99.90;;;;;;4997500;28;20037;-65
2023/01/09 09:19:12;;;;;;;44.97;18.13;;;8.60;99.90;;;;;;4995873;28;20043;-65
2023/01/09 09:21:38;;;;;;;15.63;8.65;;;8.70;99.90;;;;;;5001323;28;20036;-65
2023/01/09 09:24:04;;;;;;;17.10;8.45;;;8.70;99.90;;;;;;4988168;28;20042;-64
2023/01/09 09:26:31;;;;;;;12.63;7.68;;;8.70;99.90;;;;;;4997963;28;20029;-64
2023/01/09 09:28:57;;;;;;;15.32;8.95;;;8.70;99.90;;;;;;4991828;28;20034;-65
2023/01/09 09:31:23;;;;;;;14.02;8.32;;;8.80;99.90;;;;;;4995603;28;20132;-64
2023/01/09 09:33:49;;;;;;;14.25;7.90;;;8.80;99.90;;;;;;4995523;28;20079;-70
2023/01/09 09:36:15;;;;;;;13.48;7.88;;;8.90;99.90;;;;;;4998638;28;20069;-63
2023/01/09 09:38:41;;;;;;;13.98;7.90;;;8.90;99.90;;;;;;4994261;28;20552;-62
2023/01/09 09:44:43;;;;;;;19.98;10.93;;;9.00;99.90;;;;;;4987970;28;20043;-63
2023/01/09 09:47:19;;;;;;;18.17;9.65;;;9.00;99.90;;;;;;5008941;28;20038;-64
2023/01/09 09:49:45;;;;;;;;;;;8.90;99.90;;;;;;4991624;28;20117;-64
2023/01/09 09:52:14;;;;;;;34.40;13.27;;;8.90;99.90;;;;;;5000121;28;20791;-63
2023/01/09 09:54:46;;;;;;;20.40;12.60;;;9.00;99.90;;;;;;5001495;28;20033;-65
2023/01/09 09:57:22;;;;;;;28.90;20.50;;;9.10;99.90;;;;;;4995929;28;20032;-65
2023/01/09 09:59:50;;;;;;;22.88;14.93;;;9.10;99.90;;;;;;4996357;28;20546;-63
2023/01/09 10:02:29;;;;;;;31.85;10.60;;;9.10;99.90;;;;;;4991265;28;20041;-63
2023/01/09 10:05:11;;;;;;;15.38;6.88;;;9.10;99.90;;;;;;4995969;28;20145;-64
2023/01/09 10:07:45;;;;;;;13.38;7.85;;;8.90;99.90;;;;;;5005253;28;20032;-64
2023/01/09 10:10:37;;;;;;;11.95;7.50;;;8.90;99.90;;;;;;5001014;28;20034;-65
2023/01/09 10:14:03;;;;;;;12.25;7.07;;;9.00;99.90;;;;;;4995605;28;20038;-64
2023/01/09 10:16:04;;;;;;;11.85;7.22;;;9.10;99.90;;;;;;4995568;28;20044;-64
2023/01/09 10:18:55;;;;;;;10.73;6.88;;;9.20;99.90;;;;;;5000772;28;20498;-62
2023/01/09 10:21:30;;;;;;;13.50;7.97;;;9.30;99.90;;;;;;4993366;28;20045;-63
2023/01/09 10:24:07;;;;;;;13.18;7.72;;;9.40;99.90;;;;;;5000552;28;20038;-67
2023/01/09 10:26:49;;;;;;;10.48;7.80;;;9.30;99.90;;;;;;5007153;28;20038;-67
2023/01/09 10:29:39;;;;;;;9.18;5.68;;;9.30;99.90;;;;;;5009136;28;20506;-68
2023/01/09 10:32:10;;;;;;;13.88;7.32;;;9.30;99.90;;;;;;4997244;28;20119;-67
2023/01/09 10:35:02;;;;;;;9.82;6.03;;;9.40;99.90;;;;;;4997238;28;20030;-67
2023/01/09 10:37:32;;;;;;;8.25;4.57;;;9.50;99.90;;;;;;5007782;28;20046;-67
2023/01/09 10:40:24;;;;;;;6.43;4.30;;;9.60;99.90;;;;;;4997441;28;20022;-67
2023/01/09 10:43:08;;;;;;;9.95;5.18;;;9.80;99.90;;;;;;4993507;28;20738;-67
2023/01/09 10:46:06;;;;;;;11.13;5.35;;;9.90;99.90;;;;;;5009992;28;20128;-66
2023/01/09 10:48:44;;;;;;;10.00;5.47;;;10.00;99.90;;;;;;5001596;28;20042;-66
2023/01/09 10:51:23;;;;;;;5.57;3.80;;;10.00;99.90;;;;;;5007050;28;20065;-66
2023/01/09 10:53:54;;;;;;;7.47;3.45;;;10.10;99.90;;;;;;5007729;28;20402;-67
2023/01/09 10:56:30;;;;;;;7.03;4.38;;;10.10;99.70;;;;;;5000026;28;20033;-66
2023/01/09 10:58:56;;;;;;;8.00;4.25;;;10.20;99.60;;;;;;5000465;28;20659;-70
2023/01/09 11:01:27;;;;;;;5.72;3.97;;;10.30;98.80;;;;;;5009947;28;20038;-67
2023/01/09 11:03:53;;;;;;;6.90;4.30;;;10.30;98.60;;;;;;4999681;28;20034;-67
2023/01/09 11:06:24;;;;;;;15.35;7.03;;;10.40;98.60;;;;;;5010040;28;20043;-67
2023/01/09 11:09:00;;;;;;;17.20;8.77;;;10.40;98.60;;;;;;5001210;28;20053;-68
2023/01/09 11:11:34;;;;;;;7.60;4.28;;;10.50;98.20;;;;;;5015550;28;20129;-68
2023/01/09 11:14:21;;;;;;;14.57;8.52;;;10.50;98.20;;;;;;5007203;28;20850;-70
2023/01/09 11:17:17;;;;;;;7.85;5.28;;;10.40;98.00;;;;;;4996492;28;20038;-68
2023/01/09 11:20:01;;;;;;;5.80;3.97;;;10.10;98.50;;;;;;5007289;28;20034;-66
2023/01/09 11:22:26;;;;;;;5.45;4.03;;;10.10;98.60;;;;;;4997917;28;20034;-66
2023/01/09 11:25:00;;;;;;;6.05;3.00;;;10.20;98.60;;;;;;5005196;28;20786;-67
2023/01/09 11:27:26;;;;;;;7.28;4.70;;;10.30;98.40;;;;;;5007886;28;20800;-67
2023/01/09 11:30:19;;;;;;;5.88;3.47;;;10.40;97.80;;;;;;5004179;28;20030;-67
2023/01/09 11:32:46;;;;;;;10.35;5.00;;;10.70;97.90;;;;;;5002696;28;20065;-67
2023/01/09 11:35:26;;;;;;;8.05;4.22;;;10.90;96.80;;;;;;5012633;28;20129;-67
2023/01/09 11:38:06;;;;;;;8.93;4.90;;;11.00;96.50;;;;;;5007213;28;20085;-67
2023/01/09 11:40:44;;;;;;;3.55;2.03;;;10.90;96.10;;;;;;5003379;28;20034;-67
2023/01/09 11:43:15;;;;;;;2.85;2.20;;;10.90;95.20;;;;;;4998893;28;20026;-66
2023/01/09 11:45:56;;;;;;;3.03;2.50;;;10.80;95.20;;;;;;5001672;28;20136;-67
2023/01/09 11:48:35;;;;;;;5.93;3.20;;;10.70;95.20;;;;;;5009458;28;20754;-67
2023/01/09 11:51:15;;;;;;;5.72;2.55;;;10.70;95.00;;;;;;5007101;28;20042;-67
2023/01/09 11:53:49;;;;;;;5.38;1.95;;;10.70;94.90;;;;;;4990407;28;20030;-67
2023/01/09 11:56:16;;;;;;;5.65;2.30;;;10.70;94.90;;;;;;5002843;28;20038;-67
2023/01/09 11:58:42;;;;;;;3.30;1.67;;;10.80;95.20;;;;;;5008563;28;20034;-67
2023/01/09 12:01:14;;;;;;;3.83;2.33;;;10.90;95.40;;;;;;5001915;28;20033;-68
2023/01/09 12:04:10;;;;;;;4.22;1.67;;;11.00;95.30;;;;;;5009001;28;20056;-67
2023/01/09 12:06:43;;;;;;;4.18;2.00;;;11.20;95.00;;;;;;4997238;28;20065;-67
2023/01/09 12:09:47;;;;;;;2.47;1.80;;;11.40;94.30;;;;;;5005665;28;20121;-67
2023/01/09 12:12:28;;;;;;;5.75;2.38;;;11.50;94.50;;;;;;5005516;28;20029;-68
2023/01/09 12:15:05;;;;;;;3.78;2.30;;;11.70;93.10;;;;;;4992802;28;20414;-68
2023/01/09 12:17:41;;;;;;;16.15;8.18;;;11.70;93.00;;;;;;5002335;28;20044;-67
2023/01/09 12:20:10;;;;;;;20.92;9.98;;;11.70;91.00;;;;;;5002100;28;20124;-67
2023/01/09 12:22:45;;;;;;;8.27;4.85;;;11.60;91.70;;;;;;5002538;28;20485;-67
2023/01/09 12:25:32;;;;;;;5.38;2.20;;;11.40;91.10;;;;;;5012243;28;20034;-66
2023/01/09 12:28:15;;;;;;;2.45;1.40;;;11.40;92.40;;;;;;5003147;28;20041;-67
2023/01/09 12:31:03;;;;;;;3.58;1.50;;;11.30;92.30;;;;;;5004462;28;20114;-69
2023/01/09 12:33:38;;;;;;;3.17;1.50;;;11.30;92.70;;;;;;4997256;28;20132;-70
2023/01/09 12:36:09;;;;;;;5.38;2.70;;;11.20;92.90;;;;;;4998595;28;20042;-70
2023/01/09 12:38:57;;;;;;;6.32;4.10;;;11.10;92.30;;;;;;4994484;28;20029;-69
2023/01/09 12:41:44;;;;;;;7.38;4.28;;;11.00;92.30;;;;;;5003036;28;20053;-70
2023/01/09 12:44:29;;;;;;;4.97;3.03;;;10.80;92.20;;;;;;5007232;28;20037;-69
2023/01/09 12:47:32;;;;;;;6.75;2.70;;;10.70;92.90;;;;;;4998895;28;20122;-68
2023/01/09 12:50:13;;;;;;;10.27;4.20;;;10.80;93.60;;;;;;5001742;28;20068;-70
2023/01/09 12:53:22;;;;;;;12.57;5.40;;;10.90;92.50;;;;;;4992273;28;20041;-71
2023/01/09 12:55:59;;;;;;;10.30;4.78;;;10.90;93.30;;;;;;4980212;28;20030;-68
2023/01/09 12:58:36;;;;;;;7.28;1.83;;;11.00;92.80;;;;;;4997946;28;20042;-68
2023/01/09 13:01:07;;;;;;;34.05;10.95;;;11.10;93.20;;;;;;5007593;28;20037;-69
2023/01/09 13:03:36;;;;;;;37.90;12.35;;;11.10;91.70;;;;;;5002848;28;20030;-72
2023/01/09 13:06:05;;;;;;;6.55;3.63;;;11.00;92.80;;;;;;4993577;28;20157;-74
2023/01/09 13:08:39;;;;;;;7.53;3.80;;;10.90;92.00;;;;;;5009506;28;20593;-69
2023/01/09 13:11:17;;;;;;;2.65;1.90;;;11.00;92.00;;;;;;5009046;28;20045;-71
2023/01/09 13:14:11;;;;;;;3.22;1.58;;;11.00;92.70;;;;;;4998850;28;20041;-69
2023/01/09 13:16:43;;;;;;;5.53;2.30;;;11.00;92.20;;;;;;4996120;28;20029;-69
2023/01/09 13:19:38;;;;;;;3.35;2.13;;;11.10;92.00;;;;;;5005957;28;20038;-71
2023/01/09 13:22:05;;;;;;;6.18;1.88;;;11.10;92.20;;;;;;5007768;28;20091;-69